createdAt,value
2023-11-07T00:01:33.430Z,11.00
2023-11-07T00:04:04.023Z,11.00
2023-11-07T00:06:35.785Z,11.10
2023-11-07T00:09:05.844Z,11.10
2023-11-07T00:11:33.113Z,11.10
2023-11-07T00:14:01.650Z,11.00
2023-11-07T00:16:31.387Z,11.10
2023-11-07T00:18:58.909Z,10.90
2023-11-07T00:21:26.689Z,10.90
2023-11-07T00:24:02.429Z,11.00
2023-11-07T00:26:33.016Z,11.00
2023-11-07T00:29:01.270Z,11.00
2023-11-07T00:31:28.619Z,10.90
2023-11-07T00:33:56.267Z,11.00
2023-11-07T00:36:23.922Z,10.90
2023-11-07T00:38:51.417Z,10.90
2023-11-07T00:41:22.089Z,10.80
2023-11-07T00:43:52.388Z,10.70
2023-11-07T00:46:21.745Z,10.60
2023-11-07T00:48:49.643Z,10.50
2023-11-07T00:51:17.406Z,10.60
2023-11-07T00:53:45.111Z,10.50
2023-11-07T00:56:16.414Z,10.40
2023-11-07T00:58:44.908Z,10.30
2023-11-07T01:01:12.587Z,10.20
2023-11-07T01:03:39.979Z,10.10
2023-11-07T01:06:08.041Z,10.00
2023-11-07T01:08:40.044Z,9.80
2023-11-07T01:11:07.707Z,9.80
2023-11-07T01:13:35.158Z,9.70
2023-11-07T01:16:06.385Z,9.70
2023-11-07T01:18:33.949Z,9.60
2023-11-07T01:21:02.839Z,9.50
2023-11-07T01:23:30.115Z,9.40
2023-11-07T01:25:57.436Z,9.50
2023-11-07T01:28:25.037Z,9.60
2023-11-07T01:30:52.362Z,9.60
2023-11-07T01:33:19.704Z,9.70
2023-11-07T01:35:47.449Z,9.80
2023-11-07T01:38:14.772Z,9.90
2023-11-07T01:40:43.469Z,9.90
2023-11-07T01:43:17.540Z,9.90
2023-11-07T01:45:45.148Z,10.00
2023-11-07T01:48:23.876Z,10.10
2023-11-07T01:50:51.758Z,10.20
2023-11-07T01:53:21.778Z,10.10
2023-11-07T01:55:55.034Z,10.10
2023-11-07T01:58:25.775Z,10.20
2023-11-07T02:00:55.747Z,10.20
2023-11-07T02:03:26.646Z,10.20
2023-11-07T02:05:58.160Z,10.30
2023-11-07T02:08:30.024Z,10.30
2023-11-07T02:10:58.017Z,10.30
2023-11-07T02:13:25.265Z,10.30
2023-11-07T02:15:55.874Z,10.30
2023-11-07T02:18:23.577Z,10.40
2023-11-07T02:20:53.212Z,10.40
2023-11-07T02:23:34.043Z,10.40
2023-11-07T02:26:05.162Z,10.40
2023-11-07T02:28:33.801Z,10.40
2023-11-07T02:31:05.244Z,10.40
2023-11-07T02:33:34.223Z,10.50
2023-11-07T02:36:01.737Z,10.40
2023-11-07T02:38:30.358Z,10.50
2023-11-07T02:40:57.854Z,10.50
2023-11-07T02:43:29.818Z,10.40
2023-11-07T02:45:57.027Z,10.50
2023-11-07T02:48:35.839Z,10.60
2023-11-07T02:51:03.481Z,10.50
2023-11-07T02:53:33.191Z,10.60
2023-11-07T02:56:03.967Z,10.60
2023-11-07T02:58:34.978Z,10.60
2023-11-07T03:01:02.830Z,10.60
2023-11-07T03:03:36.448Z,10.70
2023-11-07T03:06:05.026Z,10.70
2023-11-07T03:08:33.366Z,10.60
2023-11-07T03:11:00.890Z,10.60
2023-11-07T03:13:28.261Z,10.60
2023-11-07T03:15:58.831Z,10.60
2023-11-07T03:18:26.577Z,10.70
2023-11-07T03:20:54.341Z,10.60
2023-11-07T03:23:21.680Z,10.70
2023-11-07T03:25:49.710Z,10.70
2023-11-07T03:28:27.438Z,10.70
2023-11-07T03:30:54.808Z,10.70
2023-11-07T03:33:25.298Z,10.70
2023-11-07T03:35:57.962Z,10.80
2023-11-07T03:38:25.731Z,10.70
2023-11-07T03:40:56.441Z,10.80
2023-11-07T03:43:23.944Z,10.70
2023-11-07T03:45:51.318Z,10.70
2023-11-07T03:48:18.614Z,10.70
2023-11-07T03:50:45.903Z,10.70
2023-11-07T03:53:13.277Z,10.70
2023-11-07T03:55:43.511Z,10.70
2023-11-07T03:58:10.724Z,10.70
2023-11-07T04:00:38.311Z,10.60
2023-11-07T04:03:05.717Z,10.70
2023-11-07T04:05:36.903Z,10.80
2023-11-07T04:08:08.316Z,10.80
2023-11-07T04:10:35.951Z,10.70
2023-11-07T04:13:06.627Z,10.70
2023-11-07T04:15:33.943Z,10.70
2023-11-07T04:18:04.761Z,10.70
2023-11-07T04:20:37.253Z,10.70
2023-11-07T04:23:07.926Z,10.60
2023-11-07T04:25:35.742Z,10.70
2023-11-07T04:28:04.938Z,10.80
2023-11-07T04:30:35.585Z,10.70
2023-11-07T04:33:04.444Z,10.80
2023-11-07T04:35:35.964Z,10.70
2023-11-07T04:38:05.975Z,10.70
2023-11-07T04:40:36.494Z,10.80
2023-11-07T04:43:10.273Z,10.70
2023-11-07T04:45:45.218Z,10.70
2023-11-07T04:48:15.497Z,10.70
2023-11-07T04:50:45.842Z,10.60
2023-11-07T04:53:13.170Z,10.70
2023-11-07T04:55:40.712Z,10.60
2023-11-07T04:58:07.976Z,10.70
2023-11-07T05:00:35.408Z,10.60
2023-11-07T05:03:06.718Z,10.60
2023-11-07T05:05:37.094Z,10.50
2023-11-07T05:08:08.089Z,10.50
2023-11-07T05:10:36.952Z,10.50
2023-11-07T05:13:04.242Z,10.50
2023-11-07T05:15:31.873Z,10.40
2023-11-07T05:18:03.551Z,10.50
2023-11-07T05:20:30.929Z,10.50
2023-11-07T05:22:58.209Z,10.40
2023-11-07T05:25:28.039Z,10.50
2023-11-07T05:27:55.421Z,10.40
2023-11-07T05:30:22.649Z,10.40
2023-11-07T05:32:53.068Z,10.40
2023-11-07T05:35:24.680Z,10.40
2023-11-07T05:38:07.932Z,10.30
2023-11-07T05:40:35.015Z,10.30
2023-11-07T05:43:03.034Z,10.40
2023-11-07T05:45:30.634Z,10.20
2023-11-07T05:48:07.178Z,10.30
2023-11-07T05:50:37.196Z,10.30
2023-11-07T05:53:05.408Z,10.30
2023-11-07T05:55:32.745Z,10.30
2023-11-07T05:58:00.582Z,10.30
2023-11-07T06:00:29.488Z,10.30
2023-11-07T06:02:57.613Z,10.30
2023-11-07T06:05:30.175Z,10.30
2023-11-07T06:07:59.034Z,10.30
2023-11-07T06:10:26.527Z,10.40
2023-11-07T06:12:57.411Z,10.40
2023-11-07T06:15:29.343Z,10.50
2023-11-07T06:17:56.722Z,10.50
2023-11-07T06:20:25.365Z,10.60
2023-11-07T06:22:56.220Z,10.60
2023-11-07T06:25:26.378Z,10.60
2023-11-07T06:27:54.448Z,10.60
2023-11-07T06:30:30.733Z,10.70
2023-11-07T06:33:02.390Z,10.70
2023-11-07T06:35:30.943Z,10.60
2023-11-07T06:38:05.779Z,10.70
2023-11-07T06:40:35.914Z,10.70
2023-11-07T06:43:06.728Z,10.60
2023-11-07T06:45:33.814Z,10.70
2023-11-07T06:48:09.838Z,10.70
2023-11-07T06:50:49.472Z,10.80
2023-11-07T06:53:24.663Z,10.90
2023-11-07T06:55:53.871Z,10.80
2023-11-07T06:58:23.596Z,11.00
2023-11-07T07:00:58.623Z,11.00
2023-11-07T07:03:28.849Z,11.00
2023-11-07T07:05:56.462Z,11.10
2023-11-07T07:08:24.847Z,11.30
2023-11-07T07:10:53.378Z,11.20
2023-11-07T07:13:21.329Z,11.40
2023-11-07T07:15:52.264Z,11.40
2023-11-07T07:18:22.149Z,11.50
2023-11-07T07:20:55.033Z,11.60
2023-11-07T07:23:26.272Z,11.60
2023-11-07T07:26:02.497Z,11.70
2023-11-07T07:28:30.540Z,11.80
2023-11-07T07:31:21.904Z,11.90
2023-11-07T07:33:59.052Z,12.00
2023-11-07T07:36:28.757Z,12.00
2023-11-07T07:38:56.809Z,11.80
2023-11-07T07:41:25.440Z,11.90
2023-11-07T07:43:56.408Z,11.90
2023-11-07T07:46:29.598Z,11.90
2023-11-07T07:48:58.100Z,11.90
2023-11-07T07:51:25.806Z,11.90
2023-11-07T07:53:56.306Z,11.90
2023-11-07T07:56:25.171Z,12.00
2023-11-07T07:58:52.734Z,12.00
2023-11-07T08:01:30.135Z,12.10
2023-11-07T08:03:57.374Z,12.20
2023-11-07T08:06:25.274Z,12.10
2023-11-07T08:08:57.936Z,12.20
2023-11-07T08:11:31.263Z,12.40
2023-11-07T08:13:58.983Z,12.50
2023-11-07T08:16:27.168Z,12.80
2023-11-07T08:18:56.387Z,13.20
2023-11-07T08:21:39.903Z,13.60
2023-11-07T08:24:15.192Z,14.10
2023-11-07T08:26:43.902Z,14.90
2023-11-07T08:29:15.615Z,15.50
2023-11-07T08:31:42.794Z,15.90
2023-11-07T08:34:10.942Z,16.20
2023-11-07T08:36:48.307Z,16.50
2023-11-07T08:39:28.768Z,16.70
2023-11-07T08:41:57.612Z,16.50
2023-11-07T08:44:33.505Z,16.40
2023-11-07T08:47:17.384Z,16.00
2023-11-07T08:49:44.799Z,15.80
2023-11-07T08:52:15.383Z,15.70
2023-11-07T08:54:45.858Z,15.50
2023-11-07T08:57:13.225Z,15.30
2023-11-07T08:59:46.337Z,15.20
2023-11-07T09:02:17.287Z,15.30
2023-11-07T09:04:44.839Z,15.30
2023-11-07T09:07:18.083Z,15.10
2023-11-07T09:09:48.106Z,14.90
2023-11-07T09:12:15.425Z,14.80
2023-11-07T09:14:42.735Z,14.70
2023-11-07T09:17:10.105Z,14.50
2023-11-07T09:19:41.644Z,14.50
2023-11-07T09:22:27.629Z,14.40
2023-11-07T09:24:56.674Z,14.30
2023-11-07T09:27:26.108Z,14.20
2023-11-07T09:29:58.627Z,14.20
2023-11-07T09:32:38.432Z,14.20
2023-11-07T09:36:15.554Z,14.30
2023-11-07T09:38:46.976Z,14.40
2023-11-07T09:41:29.119Z,14.40
2023-11-07T09:43:56.938Z,14.20
2023-11-07T09:46:35.443Z,14.10
2023-11-07T09:49:49.208Z,14.10
2023-11-07T09:52:54.974Z,14.10
2023-11-07T09:55:24.892Z,14.00
2023-11-07T09:58:18.033Z,14.00
2023-11-07T10:00:55.746Z,13.90
2023-11-07T10:03:27.310Z,13.80
2023-11-07T10:06:11.977Z,13.70
2023-11-07T10:08:39.743Z,13.80
2023-11-07T10:11:14.293Z,13.70
2023-11-07T10:14:01.565Z,13.70
2023-11-07T10:17:01.582Z,13.60
2023-11-07T10:19:31.824Z,13.30
2023-11-07T10:22:04.708Z,13.30
2023-11-07T10:24:54.513Z,13.10
2023-11-07T10:27:32.237Z,13.10
2023-11-07T10:30:00.425Z,13.00
2023-11-07T10:32:49.295Z,12.90
2023-11-07T10:35:18.314Z,12.80
2023-11-07T10:37:47.079Z,12.80
2023-11-07T10:40:22.918Z,12.80
2023-11-07T10:42:54.401Z,12.70
2023-11-07T10:45:23.293Z,12.80
2023-11-07T10:47:51.509Z,12.80
2023-11-07T10:50:20.244Z,12.90
2023-11-07T10:52:51.620Z,12.90
2023-11-07T10:55:27.473Z,13.00
2023-11-07T10:58:03.727Z,13.10
2023-11-07T11:03:24.413Z,13.40
2023-11-07T11:06:04.124Z,13.40
2023-11-07T11:08:36.700Z,13.30
2023-11-07T11:11:05.252Z,13.30
2023-11-07T11:13:34.186Z,13.30
2023-11-07T11:16:02.898Z,13.40
2023-11-07T11:18:40.828Z,13.40
2023-11-07T11:21:19.654Z,13.50
2023-11-07T11:24:05.774Z,13.60
2023-11-07T11:26:46.326Z,13.70
2023-11-07T11:29:28.277Z,13.80
2023-11-07T11:31:57.917Z,13.80
2023-11-07T11:34:38.645Z,13.80
2023-11-07T11:37:12.585Z,13.90
2023-11-07T11:39:47.002Z,13.90
2023-11-07T11:42:17.669Z,13.80
2023-11-07T11:44:48.476Z,13.90
2023-11-07T11:47:54.605Z,13.80
2023-11-07T11:50:23.032Z,13.80
2023-11-07T11:52:57.487Z,13.70
2023-11-07T11:55:24.930Z,13.60
2023-11-07T11:58:12.902Z,13.50
2023-11-07T12:00:42.334Z,13.50
2023-11-07T12:03:18.976Z,13.40
2023-11-07T12:06:09.514Z,13.50
2023-11-07T12:08:48.773Z,13.60
2023-11-07T12:11:18.775Z,13.80
2023-11-07T12:13:46.330Z,13.90
2023-11-07T12:16:21.138Z,13.90
2023-11-07T12:18:52.043Z,13.90
2023-11-07T12:21:36.336Z,13.90
2023-11-07T12:24:12.837Z,13.90
2023-11-07T12:26:43.202Z,13.90
2023-11-07T12:29:11.836Z,13.90
2023-11-07T12:31:45.141Z,13.90
2023-11-07T12:34:15.533Z,13.80
2023-11-07T12:36:47.898Z,13.70
2023-11-07T12:39:19.921Z,13.50
2023-11-07T12:41:47.442Z,13.50
2023-11-07T12:44:17.668Z,13.40
2023-11-07T12:46:49.869Z,13.40
2023-11-07T12:49:21.329Z,13.40
2023-11-07T12:51:49.686Z,13.40
2023-11-07T12:54:25.976Z,13.40
2023-11-07T12:57:01.149Z,13.50
2023-11-07T12:59:36.134Z,13.50
2023-11-07T13:02:04.830Z,13.60
2023-11-07T13:04:35.811Z,13.50
2023-11-07T13:07:23.985Z,13.40
2023-11-07T13:09:51.667Z,13.20
2023-11-07T13:12:31.920Z,13.20
2023-11-07T13:15:04.565Z,13.10
2023-11-07T13:17:39.939Z,13.20
2023-11-07T13:20:15.277Z,13.10
2023-11-07T13:22:43.463Z,13.10
2023-11-07T13:25:19.704Z,12.90
2023-11-07T13:27:55.342Z,12.70
2023-11-07T13:30:25.025Z,12.50
2023-11-07T13:32:52.325Z,12.50
2023-11-07T13:35:20.246Z,12.40
2023-11-07T13:37:51.942Z,12.40
2023-11-07T13:40:19.374Z,12.30
2023-11-07T13:42:46.816Z,12.30
2023-11-07T13:45:14.636Z,12.20
2023-11-07T13:47:50.964Z,12.20
2023-11-07T13:50:22.787Z,12.30
2023-11-07T13:52:57.231Z,12.20
2023-11-07T13:55:28.969Z,12.10
2023-11-07T13:58:00.189Z,12.10
2023-11-07T14:00:33.295Z,12.10
2023-11-07T14:03:10.412Z,12.00
2023-11-07T14:05:48.032Z,11.90
2023-11-07T14:08:26.877Z,12.00
2023-11-07T14:11:00.544Z,11.90
2023-11-07T14:13:28.378Z,11.80
2023-11-07T14:16:00.173Z,11.70
2023-11-07T14:18:28.281Z,11.70
2023-11-07T14:20:59.682Z,11.50
2023-11-07T14:23:41.731Z,11.60
2023-11-07T14:26:12.427Z,11.60
2023-11-07T14:28:50.782Z,11.50
2023-11-07T14:34:13.238Z,11.30
2023-11-07T14:36:41.410Z,11.30
2023-11-07T14:39:13.990Z,11.20
2023-11-07T14:41:41.960Z,11.10
2023-11-07T14:44:13.542Z,11.00
2023-11-07T14:46:42.044Z,11.10
2023-11-07T14:49:21.179Z,11.00
2023-11-07T14:51:59.173Z,11.00
2023-11-07T14:54:32.828Z,10.80
2023-11-07T14:57:09.831Z,10.80
2023-11-07T14:59:38.836Z,10.80
2023-11-07T15:02:14.642Z,10.90
2023-11-07T15:04:56.988Z,10.70
2023-11-07T15:07:24.611Z,10.70
2023-11-07T15:10:03.400Z,10.70
2023-11-07T15:12:31.891Z,10.60
2023-11-07T15:15:00.469Z,10.70
2023-11-07T15:17:28.111Z,10.70
2023-11-07T15:19:57.918Z,10.80
2023-11-07T15:22:25.917Z,10.60
2023-11-07T15:24:53.759Z,10.70
2023-11-07T15:27:21.126Z,10.80
2023-11-07T15:29:50.375Z,10.70
2023-11-07T15:32:18.239Z,10.70
2023-11-07T15:34:45.686Z,10.90
2023-11-07T15:37:19.753Z,10.80
2023-11-07T15:39:49.013Z,10.70
2023-11-07T15:42:16.542Z,10.80
2023-11-07T15:44:44.176Z,10.70
2023-11-07T15:47:11.685Z,10.80
2023-11-07T15:49:41.439Z,10.80
2023-11-07T15:52:10.876Z,10.70
2023-11-07T15:54:38.427Z,10.80
2023-11-07T15:57:06.850Z,10.80
2023-11-07T15:59:34.761Z,10.70
2023-11-07T16:02:07.354Z,10.70
2023-11-07T16:04:37.792Z,10.60
2023-11-07T16:07:05.895Z,10.60
2023-11-07T16:09:38.115Z,10.50
2023-11-07T16:12:10.316Z,10.40
2023-11-07T16:14:38.715Z,10.20
2023-11-07T16:17:09.227Z,10.10
2023-11-07T16:19:36.721Z,10.10
2023-11-07T16:22:05.785Z,10.00
2023-11-07T16:24:36.590Z,9.90
2023-11-07T16:27:10.714Z,10.10
2023-11-07T16:29:41.678Z,10.00
2023-11-07T16:32:14.300Z,10.00
2023-11-07T16:34:45.655Z,10.10
2023-11-07T16:37:14.333Z,10.00
2023-11-07T16:39:42.712Z,10.00
2023-11-07T16:42:13.250Z,10.00
2023-11-07T16:44:44.053Z,10.20
2023-11-07T16:47:12.854Z,10.20
2023-11-07T16:49:44.735Z,10.20
2023-11-07T16:52:18.306Z,10.10
2023-11-07T16:54:46.380Z,10.10
2023-11-07T16:57:14.285Z,10.10
2023-11-07T16:59:43.359Z,10.10
2023-11-07T17:02:14.430Z,10.10
2023-11-07T17:04:44.678Z,10.10
2023-11-07T17:07:13.849Z,10.10
2023-11-07T17:09:47.594Z,10.10
2023-11-07T17:12:14.941Z,10.20
2023-11-07T17:14:45.349Z,10.20
2023-11-07T17:17:13.729Z,10.20
2023-11-07T17:19:41.964Z,10.20
2023-11-07T17:22:13.761Z,10.20
2023-11-07T17:24:41.213Z,10.10
2023-11-07T17:27:13.526Z,10.10
2023-11-07T17:29:41.533Z,10.00
2023-11-07T17:32:18.016Z,10.10
2023-11-07T17:34:48.129Z,10.00
2023-11-07T17:37:18.066Z,10.00
2023-11-07T17:39:45.267Z,10.00
2023-11-07T17:42:12.755Z,10.00
2023-11-07T17:44:40.771Z,10.00
2023-11-07T17:47:08.526Z,10.00
2023-11-07T17:49:35.722Z,9.90
2023-11-07T17:52:03.673Z,10.00
2023-11-07T17:54:33.764Z,9.90
2023-11-07T17:57:01.197Z,10.00
2023-11-07T17:59:28.723Z,10.00
2023-11-07T18:01:55.955Z,10.00
2023-11-07T18:04:23.113Z,9.90
2023-11-07T18:06:50.586Z,9.90
2023-11-07T18:09:23.205Z,9.90
2023-11-07T18:11:52.154Z,9.90
2023-11-07T18:14:21.304Z,9.90
2023-11-07T18:16:48.441Z,10.00
2023-11-07T18:19:17.198Z,10.00
2023-11-07T18:21:45.402Z,10.00
2023-11-07T18:24:13.142Z,10.00
2023-11-07T18:29:38.962Z,10.00
2023-11-07T18:32:08.261Z,10.10
2023-11-07T18:34:36.750Z,10.00
2023-11-07T18:37:13.137Z,10.10
2023-11-07T18:39:41.103Z,10.10
2023-11-07T18:42:09.748Z,10.10
2023-11-07T18:44:48.404Z,10.10
2023-11-07T18:47:15.737Z,10.10
2023-11-07T18:49:43.204Z,10.10
2023-11-07T18:52:14.613Z,10.10
2023-11-07T18:54:42.667Z,10.10
2023-11-07T18:57:14.427Z,10.10
2023-11-07T18:59:42.464Z,10.20
2023-11-07T19:02:12.307Z,10.10
2023-11-07T19:04:40.711Z,10.10
2023-11-07T19:07:09.393Z,10.10
2023-11-07T19:09:38.409Z,10.10
2023-11-07T19:12:10.823Z,10.10
2023-11-07T19:14:42.240Z,10.20
2023-11-07T19:17:09.835Z,10.20
2023-11-07T19:19:37.573Z,10.20
2023-11-07T19:22:05.181Z,10.20
2023-11-07T19:24:32.852Z,10.10
2023-11-07T19:27:00.365Z,10.20
2023-11-07T19:29:31.083Z,10.10
2023-11-07T19:31:59.037Z,10.10
2023-11-07T19:34:27.268Z,10.00
2023-11-07T19:36:56.876Z,9.90
2023-11-07T19:39:30.558Z,9.90
2023-11-07T19:42:06.479Z,9.90
2023-11-07T19:44:37.361Z,9.80
2023-11-07T19:47:05.235Z,9.80
2023-11-07T19:49:32.665Z,9.70
2023-11-07T19:52:07.085Z,9.70
2023-11-07T19:54:35.432Z,9.60
2023-11-07T19:57:03.265Z,9.60
2023-11-07T19:59:30.733Z,9.50
2023-11-07T20:01:59.644Z,9.50
2023-11-07T20:04:27.016Z,9.60
2023-11-07T20:06:54.565Z,9.60
2023-11-07T20:09:24.827Z,9.60
2023-11-07T20:11:55.040Z,9.60
2023-11-07T20:14:23.138Z,9.60
2023-11-07T20:16:51.027Z,9.60
2023-11-07T20:19:18.362Z,9.60
2023-11-07T20:21:45.912Z,9.60
2023-11-07T20:24:13.289Z,9.60
2023-11-07T20:26:43.424Z,9.70
2023-11-07T20:29:11.013Z,9.60
2023-11-07T20:31:38.504Z,9.70
2023-11-07T20:34:06.343Z,9.70
2023-11-07T20:36:36.858Z,9.80
2023-11-07T20:39:06.811Z,9.70
2023-11-07T20:41:37.500Z,9.70
2023-11-07T20:44:05.465Z,9.80
2023-11-07T20:46:34.738Z,9.70
2023-11-07T20:49:07.006Z,9.70
2023-11-07T20:51:36.666Z,9.80
2023-11-07T20:54:10.410Z,9.80
2023-11-07T20:56:39.317Z,9.80
2023-11-07T20:59:06.855Z,9.80
2023-11-07T21:01:34.399Z,9.80
2023-11-07T21:04:02.643Z,9.80
2023-11-07T21:06:33.795Z,9.80
2023-11-07T21:09:01.646Z,9.70
2023-11-07T21:11:29.363Z,9.80
2023-11-07T21:13:57.345Z,9.80
2023-11-07T21:16:29.867Z,9.80
2023-11-07T21:19:03.597Z,9.80
2023-11-07T21:21:34.177Z,9.70
2023-11-07T21:24:01.736Z,9.80
2023-11-07T21:26:29.517Z,9.80
2023-11-07T21:28:57.464Z,9.80
2023-11-07T21:31:27.352Z,9.70
2023-11-07T21:33:55.001Z,9.70
2023-11-07T21:36:22.797Z,9.70
2023-11-07T21:38:50.280Z,9.70
2023-11-07T21:41:17.450Z,9.80
2023-11-07T21:43:47.905Z,9.80
2023-11-07T21:46:15.673Z,9.90
2023-11-07T21:48:45.202Z,9.80
2023-11-07T21:51:16.377Z,9.90
2023-11-07T21:53:43.830Z,9.80
2023-11-07T21:56:14.239Z,9.80
2023-11-07T21:58:43.372Z,9.80
2023-11-07T22:01:11.143Z,9.70
2023-11-07T22:03:39.175Z,9.80
2023-11-07T22:06:09.299Z,9.80
2023-11-07T22:08:37.052Z,9.80
2023-11-07T22:11:05.948Z,9.80
2023-11-07T22:13:34.094Z,9.70
2023-11-07T22:16:01.376Z,9.80
2023-11-07T22:18:32.008Z,9.70
2023-11-07T22:21:00.637Z,9.70
2023-11-07T22:23:29.532Z,9.80
2023-11-07T22:25:57.582Z,9.70
2023-11-07T22:28:25.488Z,9.70
2023-11-07T22:30:53.901Z,9.70
2023-11-07T22:33:24.767Z,9.60
2023-11-07T22:35:53.704Z,9.60
2023-11-07T22:38:21.640Z,9.50
2023-11-07T22:40:52.422Z,9.50
2023-11-07T22:43:22.951Z,9.40
2023-11-07T22:45:50.547Z,9.50
2023-11-07T22:48:21.804Z,9.40
2023-11-07T22:50:49.459Z,9.40
2023-11-07T22:53:21.263Z,9.30
2023-11-07T22:55:49.853Z,9.30
2023-11-07T22:58:17.124Z,9.20
2023-11-07T23:00:47.636Z,9.10
2023-11-07T23:03:15.719Z,9.20
2023-11-07T23:05:45.270Z,9.10
2023-11-07T23:08:12.786Z,9.10
2023-11-07T23:10:42.113Z,9.20
2023-11-07T23:13:09.794Z,9.20
2023-11-07T23:15:38.778Z,9.30
2023-11-07T23:18:07.049Z,9.30
2023-11-07T23:20:36.973Z,9.30
2023-11-07T23:23:05.043Z,9.30
2023-11-07T23:25:32.667Z,9.20
2023-11-07T23:28:02.623Z,9.30
2023-11-07T23:30:32.126Z,9.20
2023-11-07T23:33:08.011Z,9.30
2023-11-07T23:35:35.947Z,9.30
2023-11-07T23:38:04.983Z,9.30
2023-11-07T23:40:37.164Z,9.30
2023-11-07T23:43:05.299Z,9.40
2023-11-07T23:45:34.858Z,9.40
2023-11-07T23:48:02.536Z,9.40
2023-11-07T23:50:30.015Z,9.40
2023-11-07T23:52:57.398Z,9.50
2023-11-07T23:55:24.702Z,9.50
2023-11-07T23:57:52.887Z,9.50
